createdAt,value
2018-01-12T00:02:20.887Z,101431.15
2018-01-12T00:04:49.349Z,101423.53
2018-01-12T00:07:17.966Z,101429.75
2018-01-12T00:09:46.378Z,101441.20
2018-01-12T00:12:14.787Z,101439.19
2018-01-12T00:14:44.844Z,101390.58
2018-01-12T00:17:13.325Z,101440.60
2018-01-12T00:19:41.768Z,101433.22
2018-01-12T00:22:10.995Z,101445.85
2018-01-12T00:24:39.382Z,101449.23
2018-01-12T00:27:07.770Z,101450.77
2018-01-12T00:29:36.242Z,101445.31
2018-01-12T00:32:04.591Z,101443.61
2018-01-12T00:34:32.939Z,101443.97
2018-01-12T00:37:01.289Z,101444.85
2018-01-12T00:39:29.632Z,101454.47
2018-01-12T00:41:58.054Z,101459.32
2018-01-12T00:44:26.462Z,101460.80
2018-01-12T00:46:55.572Z,101462.05
2018-01-12T00:49:23.998Z,101466.12
2018-01-12T00:51:52.332Z,101468.43
2018-01-12T00:54:21.428Z,101468.29
2018-01-12T00:56:49.782Z,101463.77
2018-01-12T00:59:18.175Z,101469.18
2018-01-12T01:01:46.532Z,101470.19
2018-01-12T01:04:14.935Z,101473.33
2018-01-12T01:06:43.342Z,101467.64
2018-01-12T01:09:11.689Z,101476.20
2018-01-12T01:11:40.110Z,101467.91
2018-01-12T01:14:08.586Z,101472.25
2018-01-12T01:16:36.990Z,101482.98
2018-01-12T01:19:05.380Z,101483.75
2018-01-12T01:21:33.785Z,101476.70
2018-01-12T01:24:02.913Z,101478.79
2018-01-12T01:26:31.326Z,101485.58
2018-01-12T01:28:59.740Z,101492.07
2018-01-12T01:31:28.848Z,101489.09
2018-01-12T01:33:57.943Z,101490.92
2018-01-12T01:36:26.358Z,101488.30
2018-01-12T01:38:54.770Z,101500.84
2018-01-12T01:41:23.168Z,101508.50
2018-01-12T01:43:51.595Z,101509.56
2018-01-12T01:46:20.706Z,101517.66
2018-01-12T01:48:49.463Z,101517.19
2018-01-12T01:51:17.872Z,101520.20
2018-01-12T01:53:46.280Z,101518.37
2018-01-12T01:56:14.631Z,101518.84
2018-01-12T01:58:42.988Z,101512.86
2018-01-12T02:01:11.320Z,101512.94
2018-01-12T02:03:39.712Z,101510.19
2018-01-12T02:06:08.918Z,101516.42
2018-01-12T02:08:38.040Z,101518.93
2018-01-12T02:11:06.373Z,101522.02
2018-01-12T02:13:35.255Z,101530.11
2018-01-12T02:16:03.663Z,101526.97
2018-01-12T02:18:32.066Z,101530.45
2018-01-12T02:21:00.526Z,101533.17
2018-01-12T02:23:28.932Z,101544.23
2018-01-12T02:25:57.340Z,101540.45
2018-01-12T02:28:25.692Z,101549.61
2018-01-12T02:30:54.024Z,101544.23
2018-01-12T02:33:22.355Z,101547.72
2018-01-12T02:35:50.780Z,101540.34
2018-01-12T02:38:19.908Z,101537.59
2018-01-12T02:40:48.428Z,101542.45
2018-01-12T02:43:16.778Z,101542.08
2018-01-12T02:45:45.171Z,101552.42
2018-01-12T02:48:13.611Z,101557.09
2018-01-12T02:50:41.960Z,101564.55
2018-01-12T02:53:10.292Z,101563.70
2018-01-12T02:55:38.651Z,101569.58
2018-01-12T02:58:07.823Z,101574.70
2018-01-12T03:00:36.991Z,101570.02
2018-01-12T03:03:05.395Z,101573.13
2018-01-12T03:05:33.791Z,101572.39
2018-01-12T03:08:02.967Z,101589.31
2018-01-12T03:10:31.367Z,101583.91
2018-01-12T03:12:59.750Z,101579.37
2018-01-12T03:15:28.162Z,101576.67
2018-01-12T03:17:56.571Z,101590.02
2018-01-12T03:20:25.006Z,101583.09
2018-01-12T03:22:53.375Z,101587.69
2018-01-12T03:25:21.716Z,101583.39
2018-01-12T03:27:50.183Z,101579.02
2018-01-12T03:30:18.556Z,101587.52
2018-01-12T03:32:46.982Z,101584.73
2018-01-12T03:35:16.290Z,101589.44
2018-01-12T03:37:44.769Z,101580.70
2018-01-12T03:40:14.036Z,101580.20
2018-01-12T03:42:42.481Z,101586.46
2018-01-12T03:45:10.884Z,101586.04
2018-01-12T03:47:39.239Z,101590.06
2018-01-12T03:50:07.647Z,101584.71
2018-01-12T03:52:36.046Z,101583.15
2018-01-12T03:55:04.455Z,101590.70
2018-01-12T03:57:32.999Z,101589.06
2018-01-12T04:00:01.418Z,101580.59
2018-01-12T04:02:29.827Z,101581.23
2018-01-12T04:04:58.210Z,101587.84
2018-01-12T04:07:26.532Z,101585.69
2018-01-12T04:09:54.869Z,101592.17
2018-01-12T04:12:23.204Z,101587.13
2018-01-12T04:14:52.388Z,101587.96
2018-01-12T04:17:21.557Z,101587.45
2018-01-12T04:19:49.978Z,101592.91
2018-01-12T04:22:18.411Z,101588.29
2018-01-12T04:24:46.823Z,101595.65
2018-01-12T04:27:15.948Z,101594.20
2018-01-12T04:29:44.436Z,101593.51
2018-01-12T04:32:12.914Z,101591.06
2018-01-12T04:34:41.379Z,101600.41
2018-01-12T04:37:09.789Z,101597.30
2018-01-12T04:39:38.269Z,101594.98
2018-01-12T04:42:06.668Z,101598.61
2018-01-12T04:44:35.262Z,101600.18
2018-01-12T04:47:03.759Z,101605.77
2018-01-12T04:49:32.296Z,101606.55
2018-01-12T04:52:01.491Z,101604.84
2018-01-12T04:54:29.933Z,101608.55
2018-01-12T04:56:58.498Z,101605.03
2018-01-12T04:59:27.020Z,101617.64
2018-01-12T05:01:55.570Z,101616.66
2018-01-12T05:04:24.121Z,101617.39
2018-01-12T05:06:52.667Z,101619.38
2018-01-12T05:09:21.329Z,101619.23
2018-01-12T05:11:50.568Z,101622.44
2018-01-12T05:14:19.093Z,101623.39
2018-01-12T05:16:47.679Z,101631.45
2018-01-12T05:19:16.453Z,101635.16
2018-01-12T05:21:45.208Z,101632.71
2018-01-12T05:24:13.694Z,101633.81
2018-01-12T05:26:42.308Z,101639.73
2018-01-12T05:29:10.663Z,101647.55
2018-01-12T05:31:39.045Z,101647.36
2018-01-12T05:34:07.570Z,101640.42
2018-01-12T05:36:36.804Z,101642.09
2018-01-12T05:39:05.336Z,101646.78
2018-01-12T05:41:33.831Z,101644.15
2018-01-12T05:44:02.209Z,101640.84
2018-01-12T05:46:30.948Z,101647.93
2018-01-12T05:48:59.418Z,101648.69
2018-01-12T05:51:27.833Z,101657.47
2018-01-12T05:53:56.321Z,101656.72
2018-01-12T05:56:24.760Z,101661.58
2018-01-12T05:58:53.250Z,101661.42
2018-01-12T06:01:39.194Z,101669.27
2018-01-12T06:04:25.175Z,101667.31
2018-01-12T06:06:53.582Z,101670.30
2018-01-12T06:09:21.979Z,101680.42
2018-01-12T06:11:50.382Z,101683.75
2018-01-12T06:14:18.794Z,101681.38
2018-01-12T06:16:47.159Z,101685.59
2018-01-12T06:19:15.592Z,101689.52
2018-01-12T06:21:43.989Z,101689.94
2018-01-12T06:24:12.329Z,101694.11
2018-01-12T06:26:41.514Z,101695.41
2018-01-12T06:29:10.620Z,101693.42
2018-01-12T06:31:39.791Z,101704.28
2018-01-12T06:34:08.206Z,101705.47
2018-01-12T06:36:37.386Z,101711.34
2018-01-12T06:39:05.764Z,101721.58
2018-01-12T06:41:34.105Z,101729.73
2018-01-12T06:44:02.500Z,101725.06
2018-01-12T06:46:30.855Z,101733.11
2018-01-12T06:48:59.265Z,101729.26
2018-01-12T06:51:27.673Z,101728.37
2018-01-12T06:53:56.886Z,101728.12
2018-01-12T06:56:25.287Z,101729.93
2018-01-12T06:58:53.620Z,101729.56
2018-01-12T07:01:22.741Z,101733.89
2018-01-12T07:03:51.123Z,101740.04
2018-01-12T07:06:19.560Z,101743.47
2018-01-12T07:08:47.915Z,101742.30
2018-01-12T07:11:16.301Z,101746.66
2018-01-12T07:13:44.634Z,101747.48
2018-01-12T07:16:12.997Z,101750.98
2018-01-12T07:18:42.100Z,101754.78
2018-01-12T07:21:28.083Z,101745.13
2018-01-12T07:23:56.417Z,101748.03
2018-01-12T07:26:24.740Z,101754.27
2018-01-12T07:28:53.170Z,101750.81
2018-01-12T07:31:21.504Z,101757.19
2018-01-12T07:33:49.824Z,101750.55
2018-01-12T07:36:18.230Z,101772.67
2018-01-12T07:38:46.651Z,101762.95
2018-01-12T07:41:15.156Z,101763.61
2018-01-12T07:43:43.578Z,101768.22
2018-01-12T07:46:12.742Z,101766.88
2018-01-12T07:48:41.171Z,101769.37
2018-01-12T07:51:10.343Z,101773.28
2018-01-12T07:53:38.740Z,101773.55
2018-01-12T07:56:07.959Z,101780.58
2018-01-12T07:58:37.167Z,101780.61
2018-01-12T08:01:10.978Z,101780.78
2018-01-12T08:03:39.382Z,101778.33
2018-01-12T08:06:07.736Z,101784.13
2018-01-12T08:08:36.072Z,101794.50
2018-01-12T08:11:04.462Z,101804.52
2018-01-12T08:13:33.592Z,101805.56
2018-01-12T08:16:01.945Z,101802.96
2018-01-12T08:18:31.047Z,101814.23
2018-01-12T08:21:00.157Z,101817.11
2018-01-12T08:23:28.479Z,101813.42
2018-01-12T08:25:56.814Z,101812.47
2018-01-12T08:28:25.190Z,101823.14
2018-01-12T08:30:53.578Z,101815.05
2018-01-12T08:33:21.912Z,101825.35
2018-01-12T08:35:50.311Z,101816.49
2018-01-12T08:38:19.048Z,101831.81
2018-01-12T08:40:47.452Z,101833.12
2018-01-12T08:43:16.590Z,101830.44
2018-01-12T08:45:44.981Z,101832.40
2018-01-12T08:48:13.390Z,101830.45
2018-01-12T08:50:41.760Z,101824.36
2018-01-12T08:53:10.145Z,101833.84
2018-01-12T08:55:38.547Z,101833.41
2018-01-12T08:58:08.527Z,101836.11
2018-01-12T09:00:36.851Z,101843.35
2018-01-12T09:03:06.007Z,101839.59
2018-01-12T09:05:34.428Z,101843.33
2018-01-12T09:08:02.802Z,101839.60
2018-01-12T09:10:31.941Z,101844.00
2018-01-12T09:13:01.098Z,101857.12
2018-01-12T09:15:30.204Z,101850.84
2018-01-12T09:18:01.218Z,101861.02
2018-01-12T09:20:35.852Z,101865.30
2018-01-12T09:26:09.614Z,101873.52
2018-01-12T09:28:38.805Z,101884.45
2018-01-12T09:31:07.971Z,101884.83
2018-01-12T09:33:36.380Z,101885.91
2018-01-12T09:36:05.548Z,101880.43
2018-01-12T09:38:45.870Z,101889.80
2018-01-12T09:41:14.203Z,101883.70
2018-01-12T09:43:42.541Z,101875.46
2018-01-12T09:46:10.951Z,101880.71
2018-01-12T09:48:39.299Z,101880.70
2018-01-12T09:51:07.629Z,101894.35
2018-01-12T09:53:36.824Z,101899.11
2018-01-12T09:56:06.004Z,101895.16
2018-01-12T09:58:34.375Z,101899.73
2018-01-12T10:01:03.581Z,101893.84
2018-01-12T10:03:31.935Z,101889.42
2018-01-12T10:06:00.443Z,101898.36
2018-01-12T10:08:28.777Z,101894.58
2018-01-12T10:10:57.095Z,101893.85
2018-01-12T10:13:25.516Z,101896.14
2018-01-12T10:15:53.907Z,101897.66
2018-01-12T10:18:34.969Z,101889.37
2018-01-12T10:21:13.088Z,101901.75
2018-01-12T10:23:41.461Z,101894.14
2018-01-12T10:26:09.856Z,101891.16
2018-01-12T10:28:55.908Z,101894.64
2018-01-12T10:34:45.294Z,101898.05
2018-01-12T10:37:14.436Z,101904.54
2018-01-12T10:39:59.092Z,101903.20
2018-01-12T10:42:27.512Z,101907.36
2018-01-12T10:44:55.864Z,101902.86
2018-01-12T10:47:26.902Z,101907.78
2018-01-12T10:53:11.530Z,101909.20
2018-01-12T10:55:39.934Z,101913.42
2018-01-12T10:58:08.303Z,101914.33
2018-01-12T11:00:36.704Z,101911.63
2018-01-12T11:03:05.043Z,101921.69
2018-01-12T11:05:34.226Z,101915.30
2018-01-12T11:08:02.638Z,101919.80
2018-01-12T11:10:30.978Z,101915.30
2018-01-12T11:12:59.402Z,101916.54
2018-01-12T11:15:27.836Z,101914.06
2018-01-12T11:17:56.943Z,101915.64
2018-01-12T11:20:26.120Z,101919.36
2018-01-12T11:22:54.520Z,101915.02
2018-01-12T11:25:23.627Z,101918.66
2018-01-12T11:27:51.984Z,101921.94
2018-01-12T11:30:20.343Z,101914.11
2018-01-12T11:32:48.679Z,101921.34
2018-01-12T11:35:17.118Z,101924.16
2018-01-12T11:37:46.260Z,101924.95
2018-01-12T11:40:14.574Z,101925.73
2018-01-12T11:42:42.958Z,101921.94
2018-01-12T11:45:11.296Z,101907.86
2018-01-12T11:47:39.622Z,101918.77
2018-01-12T11:50:07.984Z,101913.66
2018-01-12T11:52:36.386Z,101915.75
2018-01-12T11:55:05.554Z,101915.27
2018-01-12T11:57:33.988Z,101913.95
2018-01-12T12:00:02.405Z,101911.92
2018-01-12T12:02:30.803Z,101919.62
2018-01-12T12:04:59.227Z,101921.63
2018-01-12T12:07:27.655Z,101920.47
2018-01-12T12:09:56.264Z,101919.39
2018-01-12T12:12:24.698Z,101924.31
2018-01-12T12:14:53.028Z,101918.93
2018-01-12T12:17:21.379Z,101920.17
2018-01-12T12:19:49.767Z,101921.86
2018-01-12T12:22:18.169Z,101915.12
2018-01-12T12:24:46.534Z,101915.12
2018-01-12T12:27:14.922Z,101915.45
2018-01-12T12:29:43.254Z,101916.05
2018-01-12T12:32:12.365Z,101920.55
2018-01-12T12:34:40.754Z,101917.45
2018-01-12T12:37:09.868Z,101915.72
2018-01-12T12:39:39.062Z,101914.25
2018-01-12T12:42:08.244Z,101919.62
2018-01-12T12:44:36.662Z,101920.55
2018-01-12T12:47:05.052Z,101912.11
2018-01-12T12:49:33.390Z,101912.80
2018-01-12T12:52:02.612Z,101924.00
2018-01-12T12:54:30.952Z,101919.00
2018-01-12T12:57:00.072Z,101914.09
2018-01-12T12:59:29.254Z,101918.01
2018-01-12T13:01:58.447Z,101914.13
2018-01-12T13:04:27.615Z,101918.63
2018-01-12T13:06:56.035Z,101914.83
2018-01-12T13:09:25.207Z,101919.56
2018-01-12T13:11:53.567Z,101920.14
2018-01-12T13:14:21.930Z,101923.83
2018-01-12T13:16:50.246Z,101929.58
2018-01-12T13:19:18.650Z,101922.84
2018-01-12T13:21:47.875Z,101925.44
2018-01-12T13:24:16.282Z,101923.77
2018-01-12T13:26:44.621Z,101930.08
2018-01-12T13:29:13.043Z,101931.37
2018-01-12T13:31:41.451Z,101931.00
2018-01-12T13:34:10.634Z,101932.99
2018-01-12T13:36:39.055Z,101924.75
2018-01-12T13:39:07.477Z,101928.78
2018-01-12T13:41:35.870Z,101934.94
2018-01-12T13:44:04.216Z,101936.55
2018-01-12T13:46:32.573Z,101934.97
2018-01-12T13:49:00.948Z,101940.56
2018-01-12T13:51:29.282Z,101945.77
2018-01-12T13:53:57.716Z,101944.64
2018-01-12T13:56:26.169Z,101948.63
2018-01-12T13:58:54.571Z,101944.41
2018-01-12T14:01:22.970Z,101945.95
2018-01-12T14:03:52.092Z,101959.21
2018-01-12T14:06:20.412Z,101958.63
2018-01-12T14:08:48.842Z,101958.98
2018-01-12T14:11:17.293Z,101961.48
2018-01-12T14:13:45.701Z,101966.92
2018-01-12T14:16:14.104Z,101966.25
2018-01-12T14:18:43.243Z,101972.34
2018-01-12T14:21:11.644Z,101962.52
2018-01-12T14:23:40.059Z,101966.44
2018-01-12T14:26:09.315Z,101968.20
2018-01-12T14:28:37.745Z,101969.70
2018-01-12T14:31:06.848Z,101973.81
2018-01-12T14:33:36.013Z,101968.19
2018-01-12T14:36:04.419Z,101970.27
2018-01-12T14:38:32.767Z,101972.66
2018-01-12T14:41:01.137Z,101972.46
2018-01-12T14:43:29.488Z,101977.71
2018-01-12T14:45:57.866Z,101977.73
2018-01-12T14:48:26.222Z,101981.77
2018-01-12T14:50:54.620Z,101980.39
2018-01-12T14:53:22.948Z,101981.26
2018-01-12T14:55:51.301Z,101988.44
2018-01-12T14:58:19.888Z,101985.16
2018-01-12T15:00:48.372Z,101992.20
2018-01-12T15:03:16.884Z,101991.27
2018-01-12T15:05:45.338Z,101987.35
2018-01-12T15:08:13.798Z,101986.20
2018-01-12T15:10:42.271Z,101990.75
2018-01-12T15:13:10.893Z,101991.70
2018-01-12T15:15:39.299Z,101989.05
2018-01-12T15:18:07.824Z,101986.70
2018-01-12T15:20:36.178Z,101991.62
2018-01-12T15:23:04.538Z,101995.19
2018-01-12T15:25:32.868Z,101993.34
2018-01-12T15:28:01.196Z,101994.23
2018-01-12T15:30:29.606Z,101995.36
2018-01-12T15:32:58.058Z,101989.71
2018-01-12T15:35:26.430Z,102002.50
2018-01-12T15:37:54.767Z,102005.61
2018-01-12T15:40:23.174Z,102005.75
2018-01-12T15:42:52.416Z,102011.06
2018-01-12T15:45:20.842Z,102012.94
2018-01-12T15:47:49.223Z,102008.38
2018-01-12T15:50:18.324Z,102008.20
2018-01-12T15:52:47.491Z,102011.92
2018-01-12T15:55:15.928Z,102012.78
2018-01-12T15:57:45.118Z,102021.77
2018-01-12T16:00:13.530Z,102022.44
2018-01-12T16:02:42.655Z,102028.06
2018-01-12T16:05:11.027Z,102034.21
2018-01-12T16:07:39.479Z,102032.09
2018-01-12T16:10:07.898Z,102033.34
2018-01-12T16:12:37.067Z,102033.16
2018-01-12T16:15:05.393Z,102025.55
2018-01-12T16:17:33.804Z,102032.31
2018-01-12T16:20:02.272Z,102028.23
2018-01-12T16:22:30.639Z,102030.00
2018-01-12T16:24:59.041Z,102029.86
2018-01-12T16:27:27.402Z,102036.35
2018-01-12T16:29:55.838Z,102033.89
2018-01-12T16:32:24.255Z,102031.52
2018-01-12T16:34:52.694Z,102031.59
2018-01-12T16:37:21.138Z,102024.38
2018-01-12T16:39:49.558Z,102024.38
2018-01-12T16:42:18.695Z,102023.15
2018-01-12T16:44:47.135Z,102025.97
2018-01-12T16:47:15.538Z,102025.84
2018-01-12T16:49:43.951Z,102028.21
2018-01-12T16:52:12.353Z,102026.87
2018-01-12T16:54:40.680Z,102033.28
2018-01-12T16:57:09.032Z,102032.50
2018-01-12T16:59:37.601Z,102031.59
2018-01-12T17:02:05.944Z,102033.58
2018-01-12T17:04:34.339Z,102034.95
2018-01-12T17:07:02.893Z,102040.69
2018-01-12T17:09:31.313Z,102042.02
2018-01-12T17:11:59.750Z,102052.03
2018-01-12T17:14:28.115Z,102048.16
2018-01-12T17:16:57.218Z,102054.98
2018-01-12T17:19:25.776Z,102059.98
2018-01-12T17:21:54.891Z,102063.41
2018-01-12T17:24:23.227Z,102056.81
2018-01-12T17:26:51.778Z,102060.29
2018-01-12T17:29:20.180Z,102061.50
2018-01-12T17:31:48.513Z,102060.94
2018-01-12T17:34:17.223Z,102070.39
2018-01-12T17:36:45.556Z,102059.97
2018-01-12T17:39:14.714Z,102066.80
2018-01-12T17:41:43.138Z,102066.50
2018-01-12T17:44:11.472Z,102072.78
2018-01-12T17:46:39.806Z,102076.05
2018-01-12T17:49:08.428Z,102074.28
2018-01-12T17:51:36.846Z,102081.39
2018-01-12T17:54:05.209Z,102082.19
2018-01-12T17:56:33.549Z,102082.89
2018-01-12T17:59:01.955Z,102082.67
2018-01-12T18:01:30.428Z,102081.59
2018-01-12T18:03:58.839Z,102084.58
2018-01-12T18:06:27.263Z,102088.78
2018-01-12T18:08:55.637Z,102089.00
2018-01-12T18:11:24.034Z,102086.53
2018-01-12T18:13:52.459Z,102081.22
2018-01-12T18:16:20.876Z,102084.00
2018-01-12T18:18:49.298Z,102089.26
2018-01-12T18:21:17.640Z,102087.93
2018-01-12T18:23:45.995Z,102091.72
2018-01-12T18:26:14.425Z,102092.11
2018-01-12T18:28:42.765Z,102091.28
2018-01-12T18:31:11.104Z,102097.70
2018-01-12T18:33:40.279Z,102099.16
2018-01-12T18:36:08.623Z,102095.53
2018-01-12T18:38:36.967Z,102097.36
2018-01-12T18:41:05.399Z,102099.33
2018-01-12T18:43:33.777Z,102101.86
2018-01-12T18:46:02.191Z,102099.05
2018-01-12T18:48:31.410Z,102096.54
2018-01-12T18:50:59.771Z,102102.45
2018-01-12T18:53:28.950Z,102104.34
2018-01-12T18:55:58.156Z,102098.98
2018-01-12T18:58:27.290Z,102107.15
2018-01-12T19:00:55.690Z,102104.43
2018-01-12T19:03:24.141Z,102106.23
2018-01-12T19:05:52.519Z,102114.16
2018-01-12T19:08:20.917Z,102107.08
2018-01-12T19:10:49.481Z,102116.02
2018-01-12T19:13:17.815Z,102117.35
2018-01-12T19:15:46.157Z,102109.80
2018-01-12T19:18:14.504Z,102113.59
2018-01-12T19:20:42.827Z,102117.86
2018-01-12T19:23:11.209Z,102119.66
2018-01-12T19:25:39.603Z,102123.23
2018-01-12T19:28:07.986Z,102124.19
2018-01-12T19:30:37.156Z,102123.95
2018-01-12T19:33:05.594Z,102126.55
2018-01-12T19:35:33.998Z,102127.70
2018-01-12T19:38:02.400Z,102129.74
2018-01-12T19:40:30.839Z,102134.02
2018-01-12T19:42:59.416Z,102129.19
2018-01-12T19:45:27.792Z,102137.67
2018-01-12T19:47:56.151Z,102139.49
2018-01-12T19:50:25.341Z,102138.42
2018-01-12T19:52:54.534Z,102137.30
2018-01-12T19:55:23.709Z,102138.00
2018-01-12T19:57:52.065Z,102145.79
2018-01-12T20:00:20.414Z,102141.66
2018-01-12T20:02:49.520Z,102143.09
2018-01-12T20:05:17.910Z,102142.84
2018-01-12T20:07:46.455Z,102141.38
2018-01-12T20:10:15.552Z,102142.80
2018-01-12T20:12:44.657Z,102143.83
2018-01-12T20:15:13.855Z,102149.77
2018-01-12T20:17:42.967Z,102150.55
2018-01-12T20:20:11.295Z,102147.27
2018-01-12T20:22:39.707Z,102152.92
2018-01-12T20:25:08.063Z,102154.45
2018-01-12T20:27:36.615Z,102150.26
2018-01-12T20:30:05.054Z,102151.18
2018-01-12T20:32:33.541Z,102152.69
2018-01-12T20:35:02.094Z,102160.44
2018-01-12T20:37:30.544Z,102156.61
2018-01-12T20:39:59.736Z,102161.47
2018-01-12T20:42:28.739Z,102143.93
2018-01-12T20:44:57.323Z,102132.06
2018-01-12T20:47:25.744Z,102132.11
2018-01-12T20:49:54.113Z,102125.05
2018-01-12T20:52:22.539Z,102124.29
2018-01-12T20:54:51.747Z,102135.98
2018-01-12T20:57:20.201Z,102135.05
2018-01-12T20:59:48.758Z,102130.66
2018-01-12T21:02:17.179Z,102134.98
2018-01-12T21:04:45.538Z,102137.48
2018-01-12T21:07:13.968Z,102131.52
2018-01-12T21:09:42.432Z,102132.24
2018-01-12T21:12:10.807Z,102132.75
2018-01-12T21:14:39.167Z,102127.98
2018-01-12T21:17:07.664Z,102134.46
2018-01-12T21:19:36.225Z,102115.86
2018-01-12T21:22:04.601Z,102125.53
2018-01-12T21:24:32.947Z,102115.72
2018-01-12T21:27:02.234Z,102109.16
2018-01-12T21:29:30.628Z,102112.50
2018-01-12T21:31:59.067Z,102114.15
2018-01-12T21:34:27.468Z,102110.77
2018-01-12T21:36:55.796Z,102114.97
2018-01-12T21:39:26.486Z,102105.92
2018-01-12T21:41:54.907Z,102107.84
2018-01-12T21:44:23.330Z,102111.02
2018-01-12T21:46:51.755Z,102107.15
2018-01-12T21:49:20.183Z,102105.81
2018-01-12T21:51:48.648Z,102103.81
2018-01-12T21:54:17.011Z,102104.02
2018-01-12T21:56:45.422Z,102104.75
2018-01-12T21:59:13.909Z,102104.83
2018-01-12T22:01:42.275Z,102107.50
2018-01-12T22:04:10.778Z,102112.20
2018-01-12T22:06:39.879Z,102112.27
2018-01-12T22:09:08.282Z,102109.77
2018-01-12T22:11:36.710Z,102102.28
2018-01-12T22:14:05.166Z,102106.16
2018-01-12T22:16:33.594Z,102113.49
2018-01-12T22:19:02.690Z,102109.11
2018-01-12T22:21:31.881Z,102116.53
2018-01-12T22:24:00.274Z,102116.73
2018-01-12T22:26:29.480Z,102114.22
2018-01-12T22:28:58.734Z,102108.84
2018-01-12T22:31:27.136Z,102114.88
2018-01-12T22:33:55.494Z,102106.83
2018-01-12T22:36:23.835Z,102112.61
2018-01-12T22:38:52.159Z,102115.14
2018-01-12T22:41:20.614Z,102114.00
2018-01-12T22:43:48.951Z,102119.16
2018-01-12T22:46:17.297Z,102115.16
2018-01-12T22:48:45.685Z,102120.17
2018-01-12T22:51:14.881Z,102118.41
2018-01-12T22:53:44.000Z,102120.90
2018-01-12T22:56:12.425Z,102127.11
2018-01-12T22:58:40.766Z,102130.05
2018-01-12T23:01:09.192Z,102126.57
2018-01-12T23:03:37.670Z,102127.78
2018-01-12T23:06:06.095Z,102130.33
2018-01-12T23:08:34.456Z,102131.45
2018-01-12T23:11:03.577Z,102129.45
2018-01-12T23:13:31.947Z,102129.80
2018-01-12T23:16:00.340Z,102131.41
2018-01-12T23:18:28.795Z,102128.89
2018-01-12T23:20:57.930Z,102126.25
2018-01-12T23:23:26.265Z,102125.92
2018-01-12T23:25:55.353Z,102125.27
2018-01-12T23:28:24.533Z,102123.94
2018-01-12T23:30:52.964Z,102125.31
2018-01-12T23:33:21.369Z,102122.96
2018-01-12T23:35:49.811Z,102119.42
2018-01-12T23:38:18.252Z,102121.00
2018-01-12T23:40:46.592Z,102121.67
2018-01-12T23:43:14.949Z,102119.60
2018-01-12T23:45:43.271Z,102120.83
2018-01-12T23:48:11.619Z,102123.25
2018-01-12T23:50:40.026Z,102121.70
2018-01-12T23:53:08.359Z,102115.49
2018-01-12T23:55:36.742Z,102119.70
2018-01-12T23:58:05.140Z,102120.55
